CSAV Brasilia — A8VK7 — position and weather

sailwx.info

Track history (hours):
 
Tides and Currents Weather Stations Pressure Air Temp Water Temp Dewpoint Dewpoint Depression Visibility Wind Speed Wind Dir Waves Ship Positions

CSAV Brasilia

Last reported at 2014-Aug-15 12:29 UTC. Time now 2014-Sep-19 03:52 UTC.
Position N 50°27' W 000°21'.
Warning: this ship's position is 34 days out of date.

Length 294 m; draft 12.1 m.

Type: Cargo ship. MMSI: 636092017.

Date/timePositionNaut miles runAvg speedWind from/ knotsBaromVisibWave heightAir tempDewpointWater temp
2014-Aug-15 12:29N 50°27' W 000°21'1914.1
2014-Aug-15 11:09N 50°32' E 000°08'914.5
2014-Aug-15 10:33N 50°34' E 000°21'1615.9
2014-Aug-15 09:33N 50°42' E 000°43'1818.2
2014-Aug-15 08:33N 50°53' E 001°06'1818.4
2014-Aug-15 07:33N 51°05' E 001°28'1616.0
2014-Aug-15 06:34N 51°16' E 001°47'1515.1
2014-Aug-15 05:33N 51°29' E 001°59'1514.7
2014-Aug-15 04:34N 51°39' E 002°16'13616.7
2014-Aug-14 20:24N 53°26' E 004°35'1214.7
2014-Aug-14 19:33N 53°33' E 004°52'1615.7
2014-Aug-14 18:33N 53°38' E 005°17'1717.1
2014-Aug-14 17:34N 53°43' E 005°45'1817.9
2014-Aug-14 16:33N 53°49' E 006°14'5217.5
2014-Aug-14 13:33N 54°02' E 007°40'1615.7
2014-Aug-14 12:33N 54°01' E 008°07'1312.8
2014-Aug-14 11:33N 53°59' E 008°28'1211.7
2014-Aug-14 10:33N 53°52' E 008°44'1514.5
2014-Aug-14 09:33N 53°53' E 009°09'1313.4
2014-Aug-14 08:34N 53°44' E 009°26'1313.1
2014-Aug-14 07:33N 53°34' E 009°40'9 8.6
2014-Aug-14 06:33N 53°32' E 009°54'0 0.0
2014-Aug-14 05:29N 53°32' E 009°54'0 0.0
2014-Aug-14 04:29N 53°32' E 009°54'0 0.0
2014-Aug-14 03:33N 53°32' E 009°54'0 0.0
2014-Aug-14 01:29N 53°32' E 009°54'0 0.0
2014-Aug-14 00:29N 53°32' E 009°54'0 0.0
2014-Aug-13 23:32N 53°32' E 009°54'0 0.0
2014-Aug-13 22:31N 53°32' E 009°54'0 0.0
2014-Aug-13 21:28N 53°32' E 009°54'0 0.0
2014-Aug-13 20:28N 53°32' E 009°54'0 0.0
2014-Aug-13 19:31N 53°32' E 009°54'0 0.0
2014-Aug-13 18:28N 53°32' E 009°54'0 0.0
2014-Aug-13 17:32N 53°32' E 009°54'0 0.0
2014-Aug-13 16:31N 53°32' E 009°54'0 0.0
2014-Aug-13 15:31N 53°32' E 009°54'0 0.0
2014-Aug-13 14:33N 53°32' E 009°54'3 3.2
2014-Aug-13 13:33N 53°33' E 009°49'1110.5
2014-Aug-13 12:33N 53°37' E 009°33'1211.6
2014-Aug-13 11:33N 53°47' E 009°23'1111.3
2014-Aug-13 10:33N 53°53' E 009°07'1413.7
2014-Aug-13 09:33N 53°52' E 008°43'1414.2
2014-Aug-13 08:33N 53°59' E 008°22'1110.9
2014-Aug-13 07:33N 53°59' E 008°04'8 7.4
2014-Aug-13 06:30N 53°57' E 007°51'7 7.0
2014-Aug-13 05:33N 53°51' E 007°58'1615.7
2014-Aug-13 04:33N 53°42' E 008°20'1110.7
2014-Aug-13 03:32N 53°34' E 008°32'0 0.0
2014-Aug-13 02:32N 53°34' E 008°32'0 0.0
2014-Aug-13 01:29N 53°34' E 008°32'0 0.0
2014-Aug-13 00:32N 53°34' E 008°32'0 0.0
2014-Aug-12 23:32N 53°34' E 008°32'0 0.0
2014-Aug-12 22:32N 53°34' E 008°32'0 0.0
2014-Aug-12 21:32N 53°34' E 008°32'0 0.0
2014-Aug-12 20:32N 53°34' E 008°32'0 0.0
2014-Aug-12 19:32N 53°34' E 008°32'0 0.0
2014-Aug-12 18:32N 53°34' E 008°32'0 0.0
2014-Aug-12 17:32N 53°34' E 008°32'0 0.0
2014-Aug-12 16:32N 53°34' E 008°32'0 0.0
2014-Aug-12 15:32N 53°34' E 008°32'0 0.0
2014-Aug-12 14:32N 53°34' E 008°32'0 0.0
2014-Aug-12 13:32N 53°34' E 008°32'0 0.0
2014-Aug-12 12:32N 53°34' E 008°32'1 0.5
2014-Aug-12 11:34N 53°35' E 008°32'1110.9
2014-Aug-12 10:33N 53°42' E 008°19'1817.4
2014-Aug-12 09:33N 53°52' E 007°54'9 9.3
2014-Aug-12 08:33N 53°54' E 007°39'5517.8
2014-Aug-12 05:28N 53°41' E 006°09'1718.6
2014-Aug-12 04:34N 53°36' E 005°41'1919.1
2014-Aug-12 03:33N 53°30' E 005°11'1918.6
2014-Aug-12 02:34N 53°23' E 004°42'2218.3
2014-Aug-12 01:23N 53°04' E 004°26'1518.2
2014-Aug-12 00:33N 52°51' E 004°13'1818.2
2014-Aug-11 23:33N 52°37' E 003°53'6916.9
2014-Aug-11 19:27N 51°54' E 002°24'1618.5
2014-Aug-11 18:34N 51°50' E 001°58'1414.3
2014-Aug-11 17:33N 51°51' E 001°35'1312.7
2014-Aug-11 16:34N 51°40' E 001°25'1818.0
2014-Aug-11 15:34N 51°30' E 001°01'1817.8
2014-Aug-11 14:34N 51°30' E 000°32'8 8.2
2014-Aug-11 13:34N 51°28' E 000°20'0 0.1
2014-Aug-11 12:34N 51°28' E 000°20'0 0.0
2014-Aug-11 11:33N 51°28' E 000°20'0 0.0
2014-Aug-11 10:33N 51°28' E 000°20'0 0.0
2014-Aug-11 09:33N 51°28' E 000°20'0 0.0
2014-Aug-11 08:33N 51°28' E 000°20'0 0.0
2014-Aug-11 07:33N 51°28' E 000°20'0 0.0
2014-Aug-11 06:33N 51°28' E 000°20'0 0.0
2014-Aug-11 05:33N 51°28' E 000°20'0 0.0
2014-Aug-11 04:33N 51°28' E 000°20'0 0.0
2014-Aug-11 03:33N 51°28' E 000°20'0 0.0
2014-Aug-11 02:33N 51°28' E 000°20'0 0.0
2014-Aug-11 01:33N 51°28' E 000°20'0 0.0
2014-Aug-11 00:33N 51°28' E 000°20'0 0.0
2014-Aug-10 23:33N 51°28' E 000°20'0 0.0
2014-Aug-10 22:33N 51°28' E 000°20'0 0.0
2014-Aug-10 21:33N 51°28' E 000°20'0 0.0
2014-Aug-10 20:33N 51°28' E 000°20'0 0.0
2014-Aug-10 19:34N 51°28' E 000°20'0 0.0
2014-Aug-10 18:33N 51°28' E 000°20'0 0.0
2014-Aug-10 17:32N 51°28' E 000°20'0 0.0
2014-Aug-10 16:29N 51°28' E 000°20'0 0.0
2014-Aug-10 15:32N 51°28' E 000°20'0 0.0
2014-Aug-10 14:32N 51°28' E 000°20'1 1.1
2014-Aug-10 13:33N 51°27' E 000°21'5 5.2
2014-Aug-10 12:33N 51°30' E 000°28'1111.1
2014-Aug-10 11:34N 51°29' E 000°46'1515.1
2014-Aug-10 10:34N 51°33' E 001°10'1010.1
2014-Aug-10 09:33N 51°39' E 001°23'1111.3
2014-Aug-10 08:33N 51°48' E 001°33'7 7.1
2014-Aug-10 07:33N 51°53' E 001°42'1 0.7
2014-Aug-10 06:33N 51°53' E 001°41'0 0.1
2014-Aug-10 05:33N 51°53' E 001°41'0 0.1
2014-Aug-10 04:33N 51°53' E 001°41'0 0.0
2014-Aug-10 03:33N 51°53' E 001°41'0 0.0
2014-Aug-10 02:33N 51°53' E 001°41'0 0.0
2014-Aug-10 01:33N 51°53' E 001°41'0 0.0
2014-Aug-10 00:33N 51°53' E 001°41'0 0.0
2014-Aug-09 23:33N 51°53' E 001°41'0 0.1
2014-Aug-09 22:33N 51°53' E 001°41'0 0.2
2014-Aug-09 21:33N 51°53' E 001°41'0 0.0
2014-Aug-09 20:33N 51°53' E 001°41'0 0.0
2014-Aug-09 19:33N 51°53' E 001°41'0 0.1
2014-Aug-09 18:24N 51°53' E 001°41'0 0.4
2014-Aug-09 17:33N 51°54' E 001°41'0 0.0
2014-Aug-09 16:33N 51°54' E 001°41'0 0.0
2014-Aug-09 15:33N 51°54' E 001°41'0 0.0
2014-Aug-09 14:33N 51°54' E 001°41'0 0.0
2014-Aug-09 13:33N 51°54' E 001°41'0 0.0
2014-Aug-09 12:33N 51°54' E 001°41'0 0.0
2014-Aug-09 11:30N 51°54' E 001°41'0 0.0
2014-Aug-09 10:33N 51°54' E 001°41'0 0.2
2014-Aug-09 09:33N 51°53' E 001°41'0 0.1
2014-Aug-09 08:33N 51°53' E 001°41'7 6.6
2014-Aug-09 07:33N 51°49' E 001°49'1918.8
2014-Aug-09 06:33N 51°30' E 001°52'2020.2
2014-Aug-09 05:33N 51°21' E 002°20'1616.2
2014-Aug-09 04:33N 51°22' E 002°46'1717.4
2014-Aug-09 03:33N 51°25' E 003°14'1414.0
2014-Aug-09 02:33N 51°26' E 003°36'1312.9
2014-Aug-09 01:34N 51°23' E 003°56'10 9.5
2014-Aug-09 00:33N 51°24' E 004°11'5 5.0
2014-Aug-08 23:33N 51°21' E 004°17'1 0.8
2014-Aug-08 22:33N 51°20' E 004°18'1 1.3
2014-Aug-08 21:33N 51°20' E 004°20'0 0.0
2014-Aug-08 20:33N 51°20' E 004°20'0 0.0
2014-Aug-08 19:33N 51°20' E 004°20'0 0.0
2014-Aug-08 18:33N 51°20' E 004°20'0 0.0
2014-Aug-08 17:33N 51°20' E 004°20'0 0.0
2014-Aug-08 16:33N 51°20' E 004°20'0 0.0
2014-Aug-08 15:33N 51°20' E 004°20'0 0.0
2014-Aug-08 14:27N 51°20' E 004°20'0 0.0
2014-Aug-08 13:30N 51°20' E 004°20'0 0.0
2014-Aug-08 12:33N 51°19' E 004°20'0 0.0
2014-Aug-08 11:30N 51°20' E 004°20'0 0.0
2014-Aug-08 10:32N 51°20' E 004°20'0 0.0
2014-Aug-08 09:32N 51°20' E 004°20'0 0.0
2014-Aug-08 08:32N 51°20' E 004°20'0 0.0
2014-Aug-08 07:32N 51°19' E 004°20'0 0.0
2014-Aug-08 06:32N 51°20' E 004°20'0 0.0
2014-Aug-08 05:32N 51°20' E 004°20'0 0.0
2014-Aug-08 04:32N 51°19' E 004°20'0 0.0
2014-Aug-08 03:32N 51°20' E 004°20'0 0.0
2014-Aug-08 02:32N 51°20' E 004°20'0 0.0
2014-Aug-08 01:32N 51°20' E 004°20'0 0.0
2014-Aug-08 00:32N 51°20' E 004°20'0 0.0
2014-Aug-07 23:26N 51°20' E 004°20'0 0.0
2014-Aug-07 22:32N 51°20' E 004°20'0 0.0
2014-Aug-07 21:32N 51°20' E 004°20'0 0.0
2014-Aug-07 20:27N 51°19' E 004°20'0 0.0
2014-Aug-07 19:17N 51°20' E 004°20'0 0.0
2014-Aug-07 18:33N 51°20' E 004°20'0 0.1
2014-Aug-07 17:33N 51°20' E 004°20'0 0.1
2014-Aug-07 16:28N 51°20' E 004°20'0 0.0
2014-Aug-07 15:31N 51°20' E 004°20'0 0.0
2014-Aug-07 14:31N 51°20' E 004°20'0 0.0
2014-Aug-07 13:29N 51°20' E 004°20'0 0.1
2014-Aug-07 12:33N 51°20' E 004°20'2 2.0
2014-Aug-07 11:34N 51°21' E 004°17'0 0.0
2014-Aug-07 10:34N 51°21' E 004°17'5 5.1
2014-Aug-07 09:33N 51°23' E 004°10'7 7.2
2014-Aug-07 08:33N 51°26' E 003°60'1010.0
2014-Aug-07 07:34N 51°22' E 003°45'1010.0
2014-Aug-07 06:33N 51°25' E 003°30'1312.5
2014-Aug-07 05:32N 51°24' E 003°10'7 7.5
2014-Aug-07 04:33N 51°31' E 003°05'1414.4
2014-Aug-07 03:33N 51°44' E 003°13'7 5.5
2014-Aug-07 02:22N 51°47' E 003°22'0 0.1
2014-Aug-07 01:31N 51°48' E 003°22'0 0.0
2014-Aug-07 00:31N 51°48' E 003°22'0 0.0
2014-Aug-06 23:17N 51°48' E 003°22'0 0.0
2014-Aug-06 22:25N 51°48' E 003°22'0 0.0
2014-Aug-06 21:25N 51°48' E 003°22'0 0.0
2014-Aug-06 20:19N 51°48' E 003°22'0 0.0
2014-Aug-06 19:28N 51°48' E 003°22'0 0.0
2014-Aug-06 18:25N 51°48' E 003°22'0 0.0
2014-Aug-06 17:10N 51°48' E 003°22'0 0.0
2014-Aug-06 15:28N 51°48' E 003°22'0 0.0
2014-Aug-06 14:28N 51°48' E 003°22'0 0.0
2014-Aug-06 13:31N 51°48' E 003°22'1 0.5
2014-Aug-06 12:33N 51°48' E 003°22'8 8.2
2014-Aug-06 11:31N 51°56' E 003°19'13 9.6
2014-Aug-06 10:08N 52°03' E 003°37'711.8
2014-Aug-06 09:33N 52°03' E 003°48'8 8.3
2014-Aug-06 08:33N 52°00' E 004°01'3 3.0
2014-Aug-06 07:25N 51°58' E 004°04'0 0.0
2014-Aug-06 06:31N 51°58' E 004°04'0 0.0
2014-Aug-06 05:26N 51°58' E 004°04'0 0.0
2014-Aug-06 04:29N 51°58' E 004°04'0 0.0
2014-Aug-06 03:32N 51°58' E 004°04'0 0.0
2014-Aug-06 02:32N 51°58' E 004°04'0 0.0
2014-Aug-06 01:32N 51°58' E 004°04'0 0.0
2014-Aug-06 00:32N 51°58' E 004°04'0 0.0
2014-Aug-05 23:29N 51°58' E 004°04'0 0.0
2014-Aug-05 22:32N 51°58' E 004°04'0 0.0
2014-Aug-05 21:32N 51°58' E 004°04'0 0.0
2014-Aug-05 20:29N 51°58' E 004°04'0 0.0
2014-Aug-05 19:23N 51°58' E 004°04'0 0.0
2014-Aug-05 18:29N 51°58' E 004°04'0 0.0
2014-Aug-05 17:32N 51°58' E 004°04'0 0.0
2014-Aug-05 16:32N 51°58' E 004°04'0 0.0
2014-Aug-05 15:20N 51°58' E 004°04'0 0.0
2014-Aug-05 14:29N 51°58' E 004°04'0 0.0
2014-Aug-05 13:32N 51°58' E 004°04'0 0.0
2014-Aug-05 12:32N 51°58' E 004°04'  
Track history (hours):
 
Tides and Currents Weather Stations Pressure Air Temp Water Temp Dewpoint Dewpoint Depression Visibility Wind Speed Wind Dir Waves Ship Positions

CSAV Brasilia

Last reported at 2014-Aug-15 12:29 UTC. Time now 2014-Sep-19 03:52 UTC.
Position N 50°27' W 000°21'.
Warning: this ship's position is 34 days out of date.

Length 294 m; draft 12.1 m.

Type: Cargo ship. MMSI: 636092017.

Date/timePositionNaut miles runAvg speedWind from/ knotsBaromVisibWave heightAir tempDewpointWater temp
2014-Aug-15 12:29N 50°27' W 000°21'1914.1
2014-Aug-15 11:09N 50°32' E 000°08'914.5
2014-Aug-15 10:33N 50°34' E 000°21'1615.9
2014-Aug-15 09:33N 50°42' E 000°43'1818.2
2014-Aug-15 08:33N 50°53' E 001°06'1818.4
2014-Aug-15 07:33N 51°05' E 001°28'1616.0
2014-Aug-15 06:34N 51°16' E 001°47'1515.1
2014-Aug-15 05:33N 51°29' E 001°59'1514.7
2014-Aug-15 04:34N 51°39' E 002°16'13616.7
2014-Aug-14 20:24N 53°26' E 004°35'1214.7
2014-Aug-14 19:33N 53°33' E 004°52'1615.7
2014-Aug-14 18:33N 53°38' E 005°17'1717.1
2014-Aug-14 17:34N 53°43' E 005°45'1817.9
2014-Aug-14 16:33N 53°49' E 006°14'5217.5
2014-Aug-14 13:33N 54°02' E 007°40'1615.7
2014-Aug-14 12:33N 54°01' E 008°07'1312.8
2014-Aug-14 11:33N 53°59' E 008°28'1211.7
2014-Aug-14 10:33N 53°52' E 008°44'1514.5
2014-Aug-14 09:33N 53°53' E 009°09'1313.4
2014-Aug-14 08:34N 53°44' E 009°26'1313.1
2014-Aug-14 07:33N 53°34' E 009°40'9 8.6
2014-Aug-14 06:33N 53°32' E 009°54'0 0.0
2014-Aug-14 05:29N 53°32' E 009°54'0 0.0
2014-Aug-14 04:29N 53°32' E 009°54'0 0.0
2014-Aug-14 03:33N 53°32' E 009°54'0 0.0
2014-Aug-14 01:29N 53°32' E 009°54'0 0.0
2014-Aug-14 00:29N 53°32' E 009°54'0 0.0
2014-Aug-13 23:32N 53°32' E 009°54'0 0.0
2014-Aug-13 22:31N 53°32' E 009°54'0 0.0
2014-Aug-13 21:28N 53°32' E 009°54'0 0.0
2014-Aug-13 20:28N 53°32' E 009°54'0 0.0
2014-Aug-13 19:31N 53°32' E 009°54'0 0.0
2014-Aug-13 18:28N 53°32' E 009°54'0 0.0
2014-Aug-13 17:32N 53°32' E 009°54'0 0.0
2014-Aug-13 16:31N 53°32' E 009°54'0 0.0
2014-Aug-13 15:31N 53°32' E 009°54'0 0.0
2014-Aug-13 14:33N 53°32' E 009°54'3 3.2
2014-Aug-13 13:33N 53°33' E 009°49'1110.5
2014-Aug-13 12:33N 53°37' E 009°33'1211.6
2014-Aug-13 11:33N 53°47' E 009°23'1111.3
2014-Aug-13 10:33N 53°53' E 009°07'1413.7
2014-Aug-13 09:33N 53°52' E 008°43'1414.2
2014-Aug-13 08:33N 53°59' E 008°22'1110.9
2014-Aug-13 07:33N 53°59' E 008°04'8 7.4
2014-Aug-13 06:30N 53°57' E 007°51'7 7.0
2014-Aug-13 05:33N 53°51' E 007°58'1615.7
2014-Aug-13 04:33N 53°42' E 008°20'1110.7
2014-Aug-13 03:32N 53°34' E 008°32'0 0.0
2014-Aug-13 02:32N 53°34' E 008°32'0 0.0
2014-Aug-13 01:29N 53°34' E 008°32'0 0.0
2014-Aug-13 00:32N 53°34' E 008°32'0 0.0
2014-Aug-12 23:32N 53°34' E 008°32'0 0.0
2014-Aug-12 22:32N 53°34' E 008°32'0 0.0
2014-Aug-12 21:32N 53°34' E 008°32'0 0.0
2014-Aug-12 20:32N 53°34' E 008°32'0 0.0
2014-Aug-12 19:32N 53°34' E 008°32'0 0.0
2014-Aug-12 18:32N 53°34' E 008°32'0 0.0
2014-Aug-12 17:32N 53°34' E 008°32'0 0.0
2014-Aug-12 16:32N 53°34' E 008°32'0 0.0
2014-Aug-12 15:32N 53°34' E 008°32'0 0.0
2014-Aug-12 14:32N 53°34' E 008°32'0 0.0
2014-Aug-12 13:32N 53°34' E 008°32'0 0.0
2014-Aug-12 12:32N 53°34' E 008°32'1 0.5
2014-Aug-12 11:34N 53°35' E 008°32'1110.9
2014-Aug-12 10:33N 53°42' E 008°19'1817.4
2014-Aug-12 09:33N 53°52' E 007°54'9 9.3
2014-Aug-12 08:33N 53°54' E 007°39'5517.8
2014-Aug-12 05:28N 53°41' E 006°09'1718.6
2014-Aug-12 04:34N 53°36' E 005°41'1919.1
2014-Aug-12 03:33N 53°30' E 005°11'1918.6
2014-Aug-12 02:34N 53°23' E 004°42'2218.3
2014-Aug-12 01:23N 53°04' E 004°26'1518.2
2014-Aug-12 00:33N 52°51' E 004°13'1818.2
2014-Aug-11 23:33N 52°37' E 003°53'6916.9
2014-Aug-11 19:27N 51°54' E 002°24'1618.5
2014-Aug-11 18:34N 51°50' E 001°58'1414.3
2014-Aug-11 17:33N 51°51' E 001°35'1312.7
2014-Aug-11 16:34N 51°40' E 001°25'1818.0
2014-Aug-11 15:34N 51°30' E 001°01'1817.8
2014-Aug-11 14:34N 51°30' E 000°32'8 8.2
2014-Aug-11 13:34N 51°28' E 000°20'0 0.1
2014-Aug-11 12:34N 51°28' E 000°20'0 0.0
2014-Aug-11 11:33N 51°28' E 000°20'0 0.0
2014-Aug-11 10:33N 51°28' E 000°20'0 0.0
2014-Aug-11 09:33N 51°28' E 000°20'0 0.0
2014-Aug-11 08:33N 51°28' E 000°20'0 0.0
2014-Aug-11 07:33N 51°28' E 000°20'0 0.0
2014-Aug-11 06:33N 51°28' E 000°20'0 0.0
2014-Aug-11 05:33N 51°28' E 000°20'0 0.0
2014-Aug-11 04:33N 51°28' E 000°20'0 0.0
2014-Aug-11 03:33N 51°28' E 000°20'0 0.0
2014-Aug-11 02:33N 51°28' E 000°20'0 0.0
2014-Aug-11 01:33N 51°28' E 000°20'0 0.0
2014-Aug-11 00:33N 51°28' E 000°20'0 0.0
2014-Aug-10 23:33N 51°28' E 000°20'0 0.0
2014-Aug-10 22:33N 51°28' E 000°20'0 0.0
2014-Aug-10 21:33N 51°28' E 000°20'0 0.0
2014-Aug-10 20:33N 51°28' E 000°20'0 0.0
2014-Aug-10 19:34N 51°28' E 000°20'0 0.0
2014-Aug-10 18:33N 51°28' E 000°20'0 0.0
2014-Aug-10 17:32N 51°28' E 000°20'0 0.0
2014-Aug-10 16:29N 51°28' E 000°20'0 0.0
2014-Aug-10 15:32N 51°28' E 000°20'0 0.0
2014-Aug-10 14:32N 51°28' E 000°20'1 1.1
2014-Aug-10 13:33N 51°27' E 000°21'5 5.2
2014-Aug-10 12:33N 51°30' E 000°28'1111.1
2014-Aug-10 11:34N 51°29' E 000°46'1515.1
2014-Aug-10 10:34N 51°33' E 001°10'1010.1
2014-Aug-10 09:33N 51°39' E 001°23'1111.3
2014-Aug-10 08:33N 51°48' E 001°33'7 7.1
2014-Aug-10 07:33N 51°53' E 001°42'1 0.7
2014-Aug-10 06:33N 51°53' E 001°41'0 0.1
2014-Aug-10 05:33N 51°53' E 001°41'0 0.1
2014-Aug-10 04:33N 51°53' E 001°41'0 0.0
2014-Aug-10 03:33N 51°53' E 001°41'0 0.0
2014-Aug-10 02:33N 51°53' E 001°41'0 0.0
2014-Aug-10 01:33N 51°53' E 001°41'0 0.0
2014-Aug-10 00:33N 51°53' E 001°41'0 0.0
2014-Aug-09 23:33N 51°53' E 001°41'0 0.1
2014-Aug-09 22:33N 51°53' E 001°41'0 0.2
2014-Aug-09 21:33N 51°53' E 001°41'0 0.0
2014-Aug-09 20:33N 51°53' E 001°41'0 0.0
2014-Aug-09 19:33N 51°53' E 001°41'0 0.1
2014-Aug-09 18:24N 51°53' E 001°41'0 0.4
2014-Aug-09 17:33N 51°54' E 001°41'0 0.0
2014-Aug-09 16:33N 51°54' E 001°41'0 0.0
2014-Aug-09 15:33N 51°54' E 001°41'0 0.0
2014-Aug-09 14:33N 51°54' E 001°41'0 0.0
2014-Aug-09 13:33N 51°54' E 001°41'0 0.0
2014-Aug-09 12:33N 51°54' E 001°41'0 0.0
2014-Aug-09 11:30N 51°54' E 001°41'0 0.0
2014-Aug-09 10:33N 51°54' E 001°41'0 0.2
2014-Aug-09 09:33N 51°53' E 001°41'0 0.1
2014-Aug-09 08:33N 51°53' E 001°41'7 6.6
2014-Aug-09 07:33N 51°49' E 001°49'1918.8
2014-Aug-09 06:33N 51°30' E 001°52'2020.2
2014-Aug-09 05:33N 51°21' E 002°20'1616.2
2014-Aug-09 04:33N 51°22' E 002°46'1717.4
2014-Aug-09 03:33N 51°25' E 003°14'1414.0
2014-Aug-09 02:33N 51°26' E 003°36'1312.9
2014-Aug-09 01:34N 51°23' E 003°56'10 9.5
2014-Aug-09 00:33N 51°24' E 004°11'5 5.0
2014-Aug-08 23:33N 51°21' E 004°17'1 0.8
2014-Aug-08 22:33N 51°20' E 004°18'1 1.3
2014-Aug-08 21:33N 51°20' E 004°20'0 0.0
2014-Aug-08 20:33N 51°20' E 004°20'0 0.0
2014-Aug-08 19:33N 51°20' E 004°20'0 0.0
2014-Aug-08 18:33N 51°20' E 004°20'0 0.0
2014-Aug-08 17:33N 51°20' E 004°20'0 0.0
2014-Aug-08 16:33N 51°20' E 004°20'0 0.0
2014-Aug-08 15:33N 51°20' E 004°20'0 0.0
2014-Aug-08 14:27N 51°20' E 004°20'0 0.0
2014-Aug-08 13:30N 51°20' E 004°20'0 0.0
2014-Aug-08 12:33N 51°19' E 004°20'0 0.0
2014-Aug-08 11:30N 51°20' E 004°20'0 0.0
2014-Aug-08 10:32N 51°20' E 004°20'0 0.0
2014-Aug-08 09:32N 51°20' E 004°20'0 0.0
2014-Aug-08 08:32N 51°20' E 004°20'0 0.0
2014-Aug-08 07:32N 51°19' E 004°20'0 0.0
2014-Aug-08 06:32N 51°20' E 004°20'0 0.0
2014-Aug-08 05:32N 51°20' E 004°20'0 0.0
2014-Aug-08 04:32N 51°19' E 004°20'0 0.0
2014-Aug-08 03:32N 51°20' E 004°20'0 0.0
2014-Aug-08 02:32N 51°20' E 004°20'0 0.0
2014-Aug-08 01:32N 51°20' E 004°20'0 0.0
2014-Aug-08 00:32N 51°20' E 004°20'0 0.0
2014-Aug-07 23:26N 51°20' E 004°20'0 0.0
2014-Aug-07 22:32N 51°20' E 004°20'0 0.0
2014-Aug-07 21:32N 51°20' E 004°20'0 0.0
2014-Aug-07 20:27N 51°19' E 004°20'0 0.0
2014-Aug-07 19:17N 51°20' E 004°20'0 0.0
2014-Aug-07 18:33N 51°20' E 004°20'0 0.1
2014-Aug-07 17:33N 51°20' E 004°20'0 0.1
2014-Aug-07 16:28N 51°20' E 004°20'0 0.0
2014-Aug-07 15:31N 51°20' E 004°20'0 0.0
2014-Aug-07 14:31N 51°20' E 004°20'0 0.0
2014-Aug-07 13:29N 51°20' E 004°20'0 0.1
2014-Aug-07 12:33N 51°20' E 004°20'2 2.0
2014-Aug-07 11:34N 51°21' E 004°17'0 0.0
2014-Aug-07 10:34N 51°21' E 004°17'5 5.1
2014-Aug-07 09:33N 51°23' E 004°10'7 7.2
2014-Aug-07 08:33N 51°26' E 003°60'1010.0
2014-Aug-07 07:34N 51°22' E 003°45'1010.0
2014-Aug-07 06:33N 51°25' E 003°30'1312.5
2014-Aug-07 05:32N 51°24' E 003°10'7 7.5
2014-Aug-07 04:33N 51°31' E 003°05'1414.4
2014-Aug-07 03:33N 51°44' E 003°13'7 5.5
2014-Aug-07 02:22N 51°47' E 003°22'0 0.1
2014-Aug-07 01:31N 51°48' E 003°22'0 0.0
2014-Aug-07 00:31N 51°48' E 003°22'0 0.0
2014-Aug-06 23:17N 51°48' E 003°22'0 0.0
2014-Aug-06 22:25N 51°48' E 003°22'0 0.0
2014-Aug-06 21:25N 51°48' E 003°22'0 0.0
2014-Aug-06 20:19N 51°48' E 003°22'0 0.0
2014-Aug-06 19:28N 51°48' E 003°22'0 0.0
2014-Aug-06 18:25N 51°48' E 003°22'0 0.0
2014-Aug-06 17:10N 51°48' E 003°22'0 0.0
2014-Aug-06 15:28N 51°48' E 003°22'0 0.0
2014-Aug-06 14:28N 51°48' E 003°22'0 0.0
2014-Aug-06 13:31N 51°48' E 003°22'1 0.5
2014-Aug-06 12:33N 51°48' E 003°22'8 8.2
2014-Aug-06 11:31N 51°56' E 003°19'13 9.6
2014-Aug-06 10:08N 52°03' E 003°37'711.8
2014-Aug-06 09:33N 52°03' E 003°48'8 8.3
2014-Aug-06 08:33N 52°00' E 004°01'3 3.0
2014-Aug-06 07:25N 51°58' E 004°04'0 0.0
2014-Aug-06 06:31N 51°58' E 004°04'0 0.0
2014-Aug-06 05:26N 51°58' E 004°04'0 0.0
2014-Aug-06 04:29N 51°58' E 004°04'0 0.0
2014-Aug-06 03:32N 51°58' E 004°04'0 0.0
2014-Aug-06 02:32N 51°58' E 004°04'0 0.0
2014-Aug-06 01:32N 51°58' E 004°04'0 0.0
2014-Aug-06 00:32N 51°58' E 004°04'0 0.0
2014-Aug-05 23:29N 51°58' E 004°04'0 0.0
2014-Aug-05 22:32N 51°58' E 004°04'0 0.0
2014-Aug-05 21:32N 51°58' E 004°04'0 0.0
2014-Aug-05 20:29N 51°58' E 004°04'0 0.0
2014-Aug-05 19:23N 51°58' E 004°04'0 0.0
2014-Aug-05 18:29N 51°58' E 004°04'0 0.0
2014-Aug-05 17:32N 51°58' E 004°04'0 0.0
2014-Aug-05 16:32N 51°58' E 004°04'0 0.0
2014-Aug-05 15:20N 51°58' E 004°04'0 0.0
2014-Aug-05 14:29N 51°58' E 004°04'0 0.0
2014-Aug-05 13:32N 51°58' E 004°04'0 0.0
2014-Aug-05 12:32N 51°58' E 004°04'  

Dump ship's entire track history